createdAt,value
2023-05-12T00:00:44.836Z,22.58
2023-05-12T00:01:44.693Z,22.58
2023-05-12T00:02:44.846Z,22.59
2023-05-12T00:03:44.889Z,22.58
2023-05-12T00:04:44.834Z,22.59
2023-05-12T00:05:44.829Z,22.59
2023-05-12T00:06:44.774Z,22.59
2023-05-12T00:07:44.778Z,22.58
2023-05-12T00:08:44.802Z,22.58
2023-05-12T00:09:44.796Z,22.59
2023-05-12T00:10:45.350Z,22.59
2023-05-12T00:11:44.850Z,22.59
2023-05-12T00:12:44.827Z,22.58
2023-05-12T00:13:44.873Z,22.59
2023-05-12T00:14:44.870Z,22.59
2023-05-12T00:15:45.306Z,22.58
2023-05-12T00:16:44.984Z,22.58
2023-05-12T00:17:44.954Z,22.59
2023-05-12T00:18:44.994Z,22.59
2023-05-12T00:19:44.932Z,22.58
2023-05-12T00:20:45.314Z,22.58
2023-05-12T00:21:44.955Z,22.58
2023-05-12T00:22:44.941Z,22.58
2023-05-12T00:23:44.992Z,22.58
2023-05-12T00:24:44.978Z,22.57
2023-05-12T00:25:45.420Z,22.58
2023-05-12T00:26:45.022Z,22.57
2023-05-12T00:27:45.014Z,22.58
2023-05-12T00:28:45.021Z,22.58
2023-05-12T00:29:45.096Z,22.58
2023-05-12T00:30:45.051Z,22.57
2023-05-12T00:31:45.092Z,22.57
2023-05-12T00:32:45.194Z,22.57
2023-05-12T00:33:45.072Z,22.57
2023-05-12T00:34:45.080Z,22.57
2023-05-12T00:35:45.360Z,22.57
2023-05-12T00:36:45.153Z,22.57
2023-05-12T00:37:45.145Z,22.57
2023-05-12T00:38:45.187Z,22.57
2023-05-12T00:39:45.211Z,22.57
2023-05-12T00:40:45.341Z,22.56
2023-05-12T00:41:45.149Z,22.57
2023-05-12T00:42:45.167Z,22.56
2023-05-12T00:43:45.206Z,22.57
2023-05-12T00:44:45.222Z,22.57
2023-05-12T00:45:45.452Z,22.57
2023-05-12T00:46:45.230Z,22.56
2023-05-12T00:47:45.268Z,22.57
2023-05-12T00:48:45.244Z,22.56
2023-05-12T00:49:45.275Z,22.57
2023-05-12T00:50:45.257Z,22.57
2023-05-12T00:51:45.323Z,22.56
2023-05-12T00:52:45.290Z,22.57
2023-05-12T00:53:50.068Z,22.57
2023-05-12T00:54:46.305Z,22.56
2023-05-12T00:55:45.362Z,22.56
2023-05-12T00:56:45.297Z,22.56
2023-05-12T00:57:45.265Z,22.57
2023-05-12T00:58:45.316Z,22.57
2023-05-12T00:59:45.250Z,22.57
2023-05-12T01:00:45.261Z,22.56
2023-05-12T01:01:45.256Z,22.56
2023-05-12T01:02:45.365Z,22.56
2023-05-12T01:03:45.303Z,22.56
2023-05-12T01:04:45.234Z,22.56
2023-05-12T01:05:45.274Z,22.55
2023-05-12T01:06:45.225Z,22.56
2023-05-12T01:07:45.244Z,22.55
2023-05-12T01:08:45.268Z,22.56
2023-05-12T01:09:45.354Z,22.56
2023-05-12T01:10:45.377Z,22.55
2023-05-12T01:11:45.222Z,22.55
2023-05-12T01:12:45.152Z,22.55
2023-05-12T01:13:45.151Z,22.55
2023-05-12T01:14:45.201Z,22.55
2023-05-12T01:15:45.359Z,22.55
2023-05-12T01:16:45.178Z,22.55
2023-05-12T01:17:45.210Z,22.55
2023-05-12T01:18:45.128Z,22.55
2023-05-12T01:19:45.116Z,22.55
2023-05-12T01:20:45.119Z,22.55
2023-05-12T01:21:45.115Z,22.54
2023-05-12T01:22:45.141Z,22.55
2023-05-12T01:23:45.092Z,22.55
2023-05-12T01:24:45.149Z,22.55
2023-05-12T01:25:45.155Z,22.55
2023-05-12T01:26:45.146Z,22.54
2023-05-12T01:27:45.182Z,22.55
2023-05-12T01:28:45.168Z,22.55
2023-05-12T01:29:45.187Z,22.55
2023-05-12T01:30:45.496Z,22.55
2023-05-12T01:31:45.224Z,22.54
2023-05-12T01:32:45.199Z,22.54
2023-05-12T01:33:45.201Z,22.54
2023-05-12T01:34:45.210Z,22.54
2023-05-12T01:35:45.373Z,22.55
2023-05-12T01:36:45.245Z,22.55
2023-05-12T01:37:45.270Z,22.54
2023-05-12T01:38:45.289Z,22.54
2023-05-12T01:39:45.323Z,22.55
2023-05-12T01:40:45.357Z,22.55
2023-05-12T01:41:45.295Z,22.54
2023-05-12T01:42:45.328Z,22.54
2023-05-12T01:43:45.354Z,22.54
2023-05-12T01:44:45.346Z,22.53
2023-05-12T01:45:45.378Z,22.53
2023-05-12T01:46:45.411Z,22.53
2023-05-12T01:47:45.450Z,22.53
2023-05-12T01:48:45.408Z,22.53
2023-05-12T01:49:45.477Z,22.53
2023-05-12T01:50:45.432Z,22.53
2023-05-12T01:51:45.461Z,22.52
2023-05-12T01:52:45.487Z,22.53
2023-05-12T01:53:45.503Z,22.53
2023-05-12T01:54:45.466Z,22.53
2023-05-12T01:55:45.517Z,22.52
2023-05-12T01:56:45.518Z,22.53
2023-05-12T01:57:45.555Z,22.52
2023-05-12T01:58:45.582Z,22.53
2023-05-12T01:59:45.558Z,22.53
2023-05-12T02:00:45.554Z,22.52
2023-05-12T02:01:45.614Z,22.52
2023-05-12T02:02:45.703Z,22.53
2023-05-12T02:03:45.673Z,22.54
2023-05-12T02:04:45.609Z,22.53
2023-05-12T02:05:46.372Z,22.53
2023-05-12T02:06:45.693Z,22.53
2023-05-12T02:07:45.655Z,22.53
2023-05-12T02:08:45.702Z,22.52
2023-05-12T02:09:45.679Z,22.53
2023-05-12T02:10:45.708Z,22.53
2023-05-12T02:11:45.711Z,22.53
2023-05-12T02:12:45.757Z,22.52
2023-05-12T02:13:45.738Z,22.53
2023-05-12T02:14:45.798Z,22.52
2023-05-12T02:15:45.746Z,22.52
2023-05-12T02:16:45.953Z,22.53
2023-05-12T02:17:45.850Z,22.52
2023-05-12T02:18:45.870Z,22.52
2023-05-12T02:19:45.884Z,22.52
2023-05-12T02:20:45.873Z,22.51
2023-05-12T02:21:45.881Z,22.51
2023-05-12T02:22:45.876Z,22.51
2023-05-12T02:23:45.908Z,22.50
2023-05-12T02:24:45.921Z,22.51
2023-05-12T02:25:45.972Z,22.51
2023-05-12T02:26:45.981Z,22.51
2023-05-12T02:27:45.953Z,22.51
2023-05-12T02:28:45.985Z,22.51
2023-05-12T02:29:46.008Z,22.52
2023-05-12T02:30:45.995Z,22.51
2023-05-12T02:31:46.105Z,22.51
2023-05-12T02:32:46.140Z,22.50
2023-05-12T02:33:46.084Z,22.51
2023-05-12T02:34:46.074Z,22.51
2023-05-12T02:35:46.097Z,22.50
2023-05-12T02:36:46.104Z,22.51
2023-05-12T02:37:46.090Z,22.52
2023-05-12T02:38:46.122Z,22.51
2023-05-12T02:39:46.168Z,22.51
2023-05-12T02:40:46.155Z,22.51
2023-05-12T02:41:46.159Z,22.51
2023-05-12T02:42:46.161Z,22.51
2023-05-12T02:43:46.165Z,22.50
2023-05-12T02:44:46.256Z,22.50
2023-05-12T02:45:46.282Z,22.50
2023-05-12T02:46:46.265Z,22.51
2023-05-12T02:47:46.340Z,22.50
2023-05-12T02:48:46.284Z,22.50
2023-05-12T02:49:46.302Z,22.50
2023-05-12T02:50:46.367Z,22.49
2023-05-12T02:51:46.421Z,22.50
2023-05-12T02:52:46.354Z,22.50
2023-05-12T02:53:46.340Z,22.49
2023-05-12T02:54:46.386Z,22.49
2023-05-12T02:55:46.401Z,22.49
2023-05-12T02:56:46.920Z,22.49
2023-05-12T02:57:46.418Z,22.49
2023-05-12T02:58:46.470Z,22.49
2023-05-12T02:59:46.462Z,22.50
2023-05-12T03:00:48.693Z,22.48
2023-05-12T03:01:47.511Z,22.48
2023-05-12T03:02:46.521Z,22.48
2023-05-12T03:03:46.599Z,22.48
2023-05-12T03:04:46.481Z,22.48
2023-05-12T03:05:46.477Z,22.49
2023-05-12T03:06:46.915Z,22.49
2023-05-12T03:07:46.417Z,22.49
2023-05-12T03:08:46.428Z,22.49
2023-05-12T03:09:46.434Z,22.49
2023-05-12T03:10:46.395Z,22.49
2023-05-12T03:11:46.917Z,22.49
2023-05-12T03:12:46.391Z,22.49
2023-05-12T03:13:46.379Z,22.48
2023-05-12T03:14:46.435Z,22.48
2023-05-12T03:15:46.369Z,22.48
2023-05-12T03:16:46.465Z,22.48
2023-05-12T03:17:46.364Z,22.48
2023-05-12T03:18:46.414Z,22.47
2023-05-12T03:19:46.368Z,22.47
2023-05-12T03:20:46.369Z,22.46
2023-05-12T03:21:46.426Z,22.47
2023-05-12T03:22:46.354Z,22.47
2023-05-12T03:23:46.311Z,22.47
2023-05-12T03:24:46.318Z,22.46
2023-05-12T03:25:46.343Z,22.47
2023-05-12T03:26:46.428Z,22.47
2023-05-12T03:27:46.306Z,22.46
2023-05-12T03:28:46.282Z,22.47
2023-05-12T03:29:46.276Z,22.48
2023-05-12T03:30:46.288Z,22.48
2023-05-12T03:31:46.500Z,22.47
2023-05-12T03:32:46.384Z,22.47
2023-05-12T03:33:46.319Z,22.46
2023-05-12T03:34:46.356Z,22.46
2023-05-12T03:35:46.393Z,22.46
2023-05-12T03:36:46.420Z,22.46
2023-05-12T03:37:46.405Z,22.46
2023-05-12T03:38:46.417Z,22.46
2023-05-12T03:39:46.445Z,22.46
2023-05-12T03:40:46.463Z,22.45
2023-05-12T03:41:46.926Z,22.46
2023-05-12T03:42:46.513Z,22.45
2023-05-12T03:43:46.524Z,22.45
2023-05-12T03:44:46.527Z,22.45
2023-05-12T03:45:46.532Z,22.44
2023-05-12T03:46:46.644Z,22.45
2023-05-12T03:47:46.597Z,22.46
2023-05-12T03:48:46.594Z,22.45
2023-05-12T03:49:46.593Z,22.45
2023-05-12T03:50:46.673Z,22.45
2023-05-12T03:51:46.636Z,22.45
2023-05-12T03:52:46.691Z,22.44
2023-05-12T03:53:46.725Z,22.44
2023-05-12T03:54:46.708Z,22.44
2023-05-12T03:55:46.730Z,22.46
2023-05-12T03:56:46.746Z,22.45
2023-05-12T03:57:46.740Z,22.44
2023-05-12T03:58:46.746Z,22.44
2023-05-12T03:59:46.781Z,22.45
2023-05-12T04:00:46.805Z,22.46
2023-05-12T04:01:46.932Z,22.46
2023-05-12T04:02:46.927Z,22.46
2023-05-12T04:03:47.079Z,22.45
2023-05-12T04:04:46.920Z,22.46
2023-05-12T04:05:46.902Z,22.47
2023-05-12T04:06:46.961Z,22.46
2023-05-12T04:07:47.010Z,22.45
2023-05-12T04:08:46.948Z,22.45
2023-05-12T04:09:47.015Z,22.45
2023-05-12T04:10:47.013Z,22.43
2023-05-12T04:11:47.047Z,22.44
2023-05-12T04:12:47.079Z,22.44
2023-05-12T04:13:47.054Z,22.44
2023-05-12T04:14:47.098Z,22.43
2023-05-12T04:15:47.117Z,22.43
2023-05-12T04:16:47.165Z,22.43
2023-05-12T04:17:47.183Z,22.43
2023-05-12T04:18:47.242Z,22.44
2023-05-12T04:19:47.207Z,22.43
2023-05-12T04:20:47.216Z,22.44
2023-05-12T04:21:47.456Z,22.43
2023-05-12T04:22:47.241Z,22.43
2023-05-12T04:23:47.245Z,22.43
2023-05-12T04:24:47.266Z,22.44
2023-05-12T04:25:47.281Z,22.43
2023-05-12T04:26:47.479Z,22.43
2023-05-12T04:27:47.316Z,22.43
2023-05-12T04:28:47.331Z,22.43
2023-05-12T04:29:47.390Z,22.43
2023-05-12T04:30:47.373Z,22.43
2023-05-12T04:31:47.469Z,22.42
2023-05-12T04:32:47.490Z,22.43
2023-05-12T04:33:48.331Z,22.43
2023-05-12T04:34:47.438Z,22.42
2023-05-12T04:35:47.463Z,22.42
2023-05-12T04:36:47.972Z,22.42
2023-05-12T04:37:47.543Z,22.43
2023-05-12T04:38:47.523Z,22.43
2023-05-12T04:39:47.552Z,22.42
2023-05-12T04:40:47.577Z,22.42
2023-05-12T04:41:47.968Z,22.42
2023-05-12T04:42:47.596Z,22.42
2023-05-12T04:44:47.601Z,22.43
2023-05-12T04:45:47.660Z,22.42
2023-05-12T04:46:47.981Z,22.42
2023-05-12T04:47:47.687Z,22.42
2023-05-12T04:48:47.562Z,22.42
2023-05-12T04:49:47.617Z,22.42
2023-05-12T04:50:47.584Z,22.42
2023-05-12T04:51:47.553Z,22.42
2023-05-12T04:52:47.587Z,22.42
2023-05-12T04:53:47.530Z,22.41
2023-05-12T04:54:47.535Z,22.41
2023-05-12T04:55:47.553Z,22.42
2023-05-12T04:56:47.978Z,22.41
2023-05-12T04:57:47.486Z,22.41
2023-05-12T04:58:47.527Z,22.42
2023-05-12T04:59:47.503Z,22.41
2023-05-12T05:00:47.481Z,22.41
2023-05-12T05:01:48.026Z,22.41
2023-05-12T05:02:47.561Z,22.41
2023-05-12T05:03:47.562Z,22.41
2023-05-12T05:04:47.479Z,22.40
2023-05-12T05:05:47.448Z,22.40
2023-05-12T05:06:47.453Z,22.41
2023-05-12T05:07:47.586Z,22.40
2023-05-12T05:08:47.440Z,22.40
2023-05-12T05:09:47.441Z,22.41
2023-05-12T05:10:47.460Z,22.40
2023-05-12T05:11:47.451Z,22.40
2023-05-12T05:12:47.411Z,22.41
2023-05-12T05:13:47.429Z,22.41
2023-05-12T05:14:47.442Z,22.40
2023-05-12T05:15:47.458Z,22.40
2023-05-12T05:16:47.373Z,22.40
2023-05-12T05:17:47.451Z,22.40
2023-05-12T05:18:47.388Z,22.39
2023-05-12T05:19:57.304Z,22.39
2023-05-12T05:20:57.196Z,22.39
2023-05-12T05:21:48.344Z,22.38
2023-05-12T05:22:47.479Z,22.38
2023-05-12T05:23:47.349Z,22.38
2023-05-12T05:24:47.339Z,22.39
2023-05-12T05:25:47.356Z,22.39
2023-05-12T05:26:47.347Z,22.39
2023-05-12T05:27:47.309Z,22.39
2023-05-12T05:28:47.294Z,22.39
2023-05-12T05:29:47.332Z,22.39
2023-05-12T05:30:47.277Z,22.39
2023-05-12T05:31:47.391Z,22.39
2023-05-12T05:32:47.365Z,22.39
2023-05-12T05:33:47.305Z,22.39
2023-05-12T05:34:47.249Z,22.40
2023-05-12T05:35:47.271Z,22.39
2023-05-12T05:36:47.236Z,22.39
2023-05-12T05:37:47.279Z,22.39
2023-05-12T05:38:47.252Z,22.39
2023-05-12T05:39:47.245Z,22.39
2023-05-12T05:40:53.643Z,22.40
2023-05-12T05:41:48.215Z,22.40
2023-05-12T05:42:47.977Z,22.40
2023-05-12T05:43:47.188Z,22.41
2023-05-12T05:44:47.194Z,22.42
2023-05-12T05:45:47.194Z,22.42
2023-05-12T05:46:47.208Z,22.41
2023-05-12T05:47:47.542Z,22.42
2023-05-12T05:48:47.156Z,22.43
2023-05-12T05:49:47.150Z,22.42
2023-05-12T05:50:47.160Z,22.43
2023-05-12T05:51:47.152Z,22.43
2023-05-12T05:52:47.166Z,22.43
2023-05-12T05:53:47.177Z,22.44
2023-05-12T05:54:47.105Z,22.45
2023-05-12T05:55:47.130Z,22.46
2023-05-12T05:56:47.119Z,22.46
2023-05-12T05:57:47.512Z,22.47
2023-05-12T05:58:47.122Z,22.47
2023-05-12T05:59:47.119Z,22.47
2023-05-12T06:00:47.126Z,22.45
2023-05-12T06:01:47.150Z,22.46
2023-05-12T06:02:47.726Z,22.46
2023-05-12T06:03:47.231Z,22.45
2023-05-12T06:04:47.048Z,22.45
2023-05-12T06:05:47.078Z,22.45
2023-05-12T06:06:47.051Z,22.44
2023-05-12T06:07:47.064Z,22.45
2023-05-12T06:08:47.119Z,22.44
2023-05-12T06:09:47.063Z,22.45
2023-05-12T06:10:47.114Z,22.46
2023-05-12T06:11:47.137Z,22.48
2023-05-12T06:12:47.513Z,22.49
2023-05-12T06:13:47.102Z,22.50
2023-05-12T06:14:47.112Z,22.51
2023-05-12T06:15:47.123Z,22.52
2023-05-12T06:16:47.166Z,22.53
2023-05-12T06:17:47.535Z,22.53
2023-05-12T06:18:47.155Z,22.55
2023-05-12T06:19:47.136Z,22.57
2023-05-12T06:20:47.151Z,22.58
2023-05-12T06:21:47.131Z,22.62
2023-05-12T06:22:47.497Z,22.65
2023-05-12T06:23:47.214Z,22.66
2023-05-12T06:24:47.229Z,22.67
2023-05-12T06:25:47.290Z,22.70
2023-05-12T06:26:47.390Z,22.74
2023-05-12T06:27:47.446Z,22.74
2023-05-12T06:28:47.519Z,22.75
2023-05-12T06:29:47.578Z,22.78
2023-05-12T06:30:47.628Z,22.79
2023-05-12T06:31:47.715Z,22.82
2023-05-12T06:32:47.772Z,22.83
2023-05-12T06:33:47.838Z,22.83
2023-05-12T06:34:47.863Z,22.85
2023-05-12T06:35:47.933Z,22.84
2023-05-12T06:36:47.982Z,22.86
2023-05-12T06:37:48.528Z,22.85
2023-05-12T06:38:48.089Z,22.85
2023-05-12T06:39:48.120Z,22.84
2023-05-12T06:40:48.207Z,22.83
2023-05-12T06:41:48.325Z,22.83
2023-05-12T06:42:48.298Z,22.83
2023-05-12T06:43:48.381Z,22.83
2023-05-12T06:44:48.449Z,22.83
2023-05-12T06:45:48.509Z,22.84
2023-05-12T06:46:48.622Z,22.84
2023-05-12T06:47:48.706Z,22.84
2023-05-12T06:48:48.691Z,22.84
2023-05-12T06:49:48.703Z,22.85
2023-05-12T06:50:48.759Z,22.84
2023-05-12T06:51:48.824Z,22.85
2023-05-12T06:52:48.997Z,22.85
2023-05-12T06:53:48.902Z,22.85
2023-05-12T06:54:48.994Z,22.87
2023-05-12T06:55:49.025Z,22.85
2023-05-12T06:56:49.090Z,22.87
2023-05-12T06:57:49.148Z,22.87
2023-05-12T06:58:49.212Z,22.85
2023-05-12T06:59:49.237Z,22.86
2023-05-12T07:00:49.300Z,22.85
2023-05-12T07:01:49.383Z,22.86
2023-05-12T07:02:49.562Z,22.86
2023-05-12T07:03:49.474Z,22.84
2023-05-12T07:04:49.439Z,22.84
2023-05-12T07:05:49.544Z,22.84
2023-05-12T07:06:49.579Z,22.83
2023-05-12T07:07:49.612Z,22.82
2023-05-12T07:08:49.674Z,22.81
2023-05-12T07:09:49.722Z,22.80
2023-05-12T07:10:49.762Z,22.80
2023-05-12T07:11:49.851Z,22.81
2023-05-12T07:12:50.072Z,22.81
2023-05-12T07:13:49.957Z,22.83
2023-05-12T07:14:50.067Z,22.85
2023-05-12T07:15:50.080Z,22.86
2023-05-12T07:16:50.133Z,22.88
2023-05-12T07:17:50.304Z,22.88
2023-05-12T07:18:50.264Z,22.89
2023-05-12T07:19:50.310Z,22.88
2023-05-12T07:20:50.342Z,22.87
2023-05-12T07:21:50.394Z,22.87
2023-05-12T07:22:50.429Z,22.86
2023-05-12T07:23:50.524Z,22.86
2023-05-12T07:24:50.593Z,22.86
2023-05-12T07:25:50.609Z,22.85
2023-05-12T07:26:50.658Z,22.86
2023-05-12T07:27:50.687Z,22.87
2023-05-12T07:28:50.783Z,22.86
2023-05-12T07:29:50.798Z,22.86
2023-05-12T07:30:50.954Z,22.86
2023-05-12T07:31:51.094Z,22.85
2023-05-12T07:32:51.050Z,22.84
2023-05-12T07:33:51.023Z,22.83
2023-05-12T07:34:51.104Z,22.85
2023-05-12T07:35:51.142Z,22.86
2023-05-12T07:36:51.182Z,22.89
2023-05-12T07:37:51.573Z,22.89
2023-05-12T07:38:51.332Z,22.88
2023-05-12T07:39:51.389Z,22.88
2023-05-12T07:40:51.410Z,22.88
2023-05-12T07:41:51.478Z,22.89
2023-05-12T07:42:51.546Z,22.88
2023-05-12T07:43:51.597Z,22.88
2023-05-12T07:44:51.637Z,22.89
2023-05-12T07:45:51.739Z,22.88
2023-05-12T07:46:51.805Z,22.87
2023-05-12T07:47:51.883Z,22.88
2023-05-12T07:48:51.898Z,22.90
2023-05-12T07:49:51.948Z,22.90
2023-05-12T07:50:52.004Z,22.91
2023-05-12T07:51:52.077Z,22.91
2023-05-12T07:52:52.106Z,22.92
2023-05-12T07:53:52.148Z,22.93
2023-05-12T07:54:52.226Z,22.94
2023-05-12T07:55:52.251Z,22.94
2023-05-12T07:56:52.303Z,22.95
2023-05-12T07:57:52.347Z,22.95
2023-05-12T07:58:52.373Z,22.94
2023-05-12T07:59:52.430Z,22.96
2023-05-12T08:00:52.443Z,22.96
2023-05-12T08:01:54.022Z,23.00
2023-05-12T08:02:52.738Z,23.02
2023-05-12T08:03:52.734Z,23.04
2023-05-12T08:04:52.623Z,23.05
2023-05-12T08:05:52.671Z,23.06
2023-05-12T08:06:52.736Z,23.07
2023-05-12T08:07:52.734Z,23.06
2023-05-12T08:08:52.780Z,23.08
2023-05-12T08:09:52.849Z,23.05
2023-05-12T08:10:52.919Z,23.04
2023-05-12T08:11:52.949Z,23.02
2023-05-12T08:12:53.044Z,23.00
2023-05-12T08:13:53.075Z,22.98
2023-05-12T08:14:53.147Z,22.96
2023-05-12T08:15:53.143Z,22.96
2023-05-12T08:16:53.249Z,22.94
2023-05-12T08:17:53.282Z,22.93
2023-05-12T08:18:53.468Z,22.96
2023-05-12T08:19:53.433Z,22.95
2023-05-12T08:20:53.446Z,22.96
2023-05-12T08:21:53.484Z,22.95
2023-05-12T08:22:53.567Z,22.92
2023-05-12T08:23:53.644Z,22.92
2023-05-12T08:24:53.712Z,22.92
2023-05-12T08:25:53.792Z,22.95
2023-05-12T08:26:53.835Z,22.93
2023-05-12T08:27:53.913Z,22.92
2023-05-12T08:28:53.908Z,22.91
2023-05-12T08:29:53.980Z,22.92
2023-05-12T08:30:54.110Z,22.91
2023-05-12T08:31:54.100Z,22.91
2023-05-12T08:32:54.203Z,22.91
2023-05-12T08:34:08.991Z,22.95
2023-05-12T08:34:55.203Z,22.94
2023-05-12T08:35:54.165Z,22.96
2023-05-12T08:36:54.202Z,22.99
2023-05-12T08:37:54.164Z,22.98
2023-05-12T08:38:54.154Z,22.99
2023-05-12T08:39:54.157Z,22.99
2023-05-12T08:40:54.203Z,23.00
2023-05-12T08:41:54.150Z,23.00
2023-05-12T08:42:54.134Z,22.99
2023-05-12T08:43:54.104Z,22.97
2023-05-12T08:44:54.124Z,22.96
2023-05-12T08:45:54.118Z,22.97
2023-05-12T08:46:54.275Z,22.96
2023-05-12T08:47:54.301Z,22.95
2023-05-12T08:48:54.362Z,22.97
2023-05-12T08:49:54.389Z,22.98
2023-05-12T08:50:54.469Z,22.97
2023-05-12T08:51:57.201Z,22.98
2023-05-12T08:52:54.519Z,22.97
2023-05-12T08:53:54.522Z,22.96
2023-05-12T08:54:56.408Z,22.93
2023-05-12T08:57:09.048Z,22.92
2023-05-12T08:57:54.472Z,22.90
2023-05-12T08:58:54.458Z,22.88
2023-05-12T08:59:54.468Z,22.89
2023-05-12T09:00:54.595Z,22.89
2023-05-12T09:01:54.489Z,22.88
2023-05-12T09:02:55.028Z,22.87
2023-05-12T09:03:54.475Z,22.86
2023-05-12T09:04:54.475Z,22.86
2023-05-12T09:05:54.421Z,22.87
2023-05-12T09:06:55.949Z,22.88
2023-05-12T09:07:54.419Z,22.87
2023-05-12T09:08:54.418Z,22.88
2023-05-12T09:09:54.399Z,22.91
2023-05-12T09:10:54.420Z,22.92
2023-05-12T09:11:54.403Z,22.93
2023-05-12T09:12:54.380Z,22.97
2023-05-12T09:13:54.388Z,22.96
2023-05-12T09:14:54.360Z,22.96
2023-05-12T09:15:54.423Z,22.97
2023-05-12T09:16:54.319Z,22.97
2023-05-12T09:17:54.400Z,22.97
2023-05-12T09:18:54.697Z,22.99
2023-05-12T09:19:54.361Z,23.01
2023-05-12T09:20:54.332Z,23.01
2023-05-12T09:21:54.364Z,23.02
2023-05-12T09:22:54.327Z,23.03
2023-05-12T09:23:54.581Z,23.03
2023-05-12T09:24:54.341Z,23.03
2023-05-12T09:25:54.312Z,23.03
2023-05-12T09:26:54.456Z,23.04
2023-05-12T09:27:54.368Z,23.04
2023-05-12T09:28:54.416Z,23.05
2023-05-12T09:30:54.383Z,23.07
2023-05-12T09:31:54.498Z,23.06
2023-05-12T09:32:54.489Z,23.07
2023-05-12T09:33:54.402Z,23.07
2023-05-12T09:34:54.400Z,23.10
2023-05-12T09:35:54.375Z,23.10
2023-05-12T09:36:54.366Z,23.11
2023-05-12T09:37:54.351Z,23.10
2023-05-12T09:38:54.646Z,23.11
2023-05-12T09:39:54.326Z,23.12
2023-05-12T09:40:55.117Z,23.12
2023-05-12T09:41:54.317Z,23.12
2023-05-12T09:42:54.295Z,23.11
2023-05-12T09:43:54.346Z,23.12
2023-05-12T09:44:54.344Z,23.14
2023-05-12T09:45:54.323Z,23.16
2023-05-12T09:46:54.343Z,23.15
2023-05-12T09:47:54.332Z,23.13
2023-05-12T09:48:54.611Z,23.12
2023-05-12T09:49:54.250Z,23.09
2023-05-12T09:50:54.298Z,23.07
2023-05-12T09:51:54.270Z,23.09
2023-05-12T09:52:54.306Z,23.07
2023-05-12T09:53:54.248Z,23.05
2023-05-12T09:54:54.223Z,23.04
2023-05-12T09:55:54.210Z,23.03
2023-05-12T09:56:54.226Z,23.01
2023-05-12T09:57:54.204Z,23.01
2023-05-12T09:58:54.249Z,23.00
2023-05-12T09:59:54.387Z,23.00
2023-05-12T10:01:13.673Z,23.00
2023-05-12T10:01:55.231Z,22.99
2023-05-12T10:02:54.203Z,22.99
2023-05-12T10:03:54.740Z,22.98
2023-05-12T10:04:54.201Z,22.99
2023-05-12T10:05:54.149Z,22.98
2023-05-12T10:06:54.134Z,23.00
2023-05-12T10:07:54.135Z,23.00
2023-05-12T10:08:54.569Z,23.00
2023-05-12T10:09:54.237Z,22.99
2023-05-12T10:10:54.374Z,23.00
2023-05-12T10:11:54.267Z,22.99
2023-05-12T10:12:54.104Z,22.99
2023-05-12T10:13:54.609Z,22.99
2023-05-12T10:14:54.154Z,22.98
2023-05-12T10:15:54.153Z,22.98
2023-05-12T10:16:54.337Z,22.98
2023-05-12T10:17:54.301Z,22.98
2023-05-12T10:18:54.644Z,22.98
2023-05-12T10:19:54.351Z,22.98
2023-05-12T10:20:54.344Z,22.98
2023-05-12T10:21:54.400Z,22.98
2023-05-12T10:22:54.478Z,22.98
2023-05-12T10:23:54.518Z,22.96
2023-05-12T10:24:54.515Z,22.97
2023-05-12T10:25:54.601Z,22.97
2023-05-12T10:26:54.595Z,22.96
2023-05-12T10:27:54.674Z,22.96
2023-05-12T10:28:54.757Z,22.96
2023-05-12T10:29:54.780Z,22.96
2023-05-12T10:30:54.846Z,22.96
2023-05-12T10:31:54.843Z,22.95
2023-05-12T10:32:54.915Z,22.95
2023-05-12T10:33:55.130Z,22.95
2023-05-12T10:34:55.050Z,22.94
2023-05-12T10:35:55.075Z,22.95
2023-05-12T10:36:55.144Z,22.95
2023-05-12T10:37:55.154Z,22.94
2023-05-12T10:38:55.200Z,22.94
2023-05-12T10:39:55.238Z,22.94
2023-05-12T10:40:55.266Z,22.95
2023-05-12T10:41:55.331Z,22.94
2023-05-12T10:42:55.362Z,22.94
2023-05-12T10:43:55.643Z,22.95
2023-05-12T10:44:55.463Z,22.93
2023-05-12T10:45:55.537Z,22.95
2023-05-12T10:46:55.608Z,22.94
2023-05-12T10:47:55.642Z,22.95
2023-05-12T10:48:56.109Z,22.94
2023-05-12T10:49:55.669Z,22.93
2023-05-12T10:50:55.701Z,22.93
2023-05-12T10:51:55.773Z,22.94
2023-05-12T10:52:55.800Z,22.92
2023-05-12T10:53:56.107Z,22.93
2023-05-12T10:54:55.937Z,22.94
2023-05-12T10:55:56.163Z,22.94
2023-05-12T10:56:56.164Z,22.93
2023-05-12T10:57:56.453Z,22.94
2023-05-12T10:58:56.424Z,22.93
2023-05-12T10:59:56.694Z,22.93
2023-05-12T11:00:56.986Z,22.93
2023-05-12T11:01:56.758Z,22.93
2023-05-12T11:03:01.244Z,22.93
2023-05-12T11:03:57.341Z,22.93
2023-05-12T11:04:56.472Z,22.93
2023-05-12T11:05:56.404Z,22.93
2023-05-12T11:06:56.349Z,22.93
2023-05-12T11:07:56.972Z,22.93
2023-05-12T11:08:57.097Z,22.93
2023-05-12T11:09:59.042Z,22.93
2023-05-12T11:10:56.310Z,22.93
2023-05-12T11:11:56.546Z,22.93
2023-05-12T11:12:56.192Z,22.94
2023-05-12T11:13:56.602Z,22.93
2023-05-12T11:14:56.198Z,22.94
2023-05-12T11:15:56.290Z,22.93
2023-05-12T11:16:56.202Z,22.93
2023-05-12T11:17:56.263Z,22.92
2023-05-12T11:18:56.260Z,22.93
2023-05-12T11:19:56.161Z,22.93
2023-05-12T11:20:56.152Z,22.93
2023-05-12T11:21:56.180Z,22.93
2023-05-12T11:22:56.193Z,22.93
2023-05-12T11:23:56.626Z,22.93
2023-05-12T11:24:56.240Z,22.92
2023-05-12T11:25:56.265Z,22.93
2023-05-12T11:26:56.099Z,22.93
2023-05-12T11:27:56.182Z,22.93
2023-05-12T11:28:56.088Z,22.93
2023-05-12T11:29:56.151Z,22.94
2023-05-12T11:30:56.183Z,22.93
2023-05-12T11:31:56.264Z,22.93
2023-05-12T11:32:56.286Z,22.92
2023-05-12T11:34:10.799Z,22.93
2023-05-12T11:34:57.342Z,22.93
2023-05-12T11:35:56.295Z,22.93
2023-05-12T11:36:56.266Z,22.93
2023-05-12T11:37:56.325Z,22.93
2023-05-12T11:38:56.263Z,22.93
2023-05-12T11:39:56.653Z,22.95
2023-05-12T11:40:56.224Z,22.93
2023-05-12T11:42:05.490Z,22.94
2023-05-12T11:42:57.273Z,22.94
2023-05-12T11:43:56.229Z,22.93
2023-05-12T11:44:56.271Z,22.93
2023-05-12T11:45:56.262Z,22.94
2023-05-12T11:46:56.230Z,22.93
2023-05-12T11:47:58.078Z,22.94
2023-05-12T11:48:56.175Z,22.93
2023-05-12T11:49:56.216Z,22.93
2023-05-12T11:50:56.216Z,22.94
2023-05-12T11:51:56.150Z,22.94
2023-05-12T11:52:56.179Z,22.94
2023-05-12T11:53:56.153Z,22.93
2023-05-12T11:54:56.678Z,22.95
2023-05-12T11:55:56.175Z,22.94
2023-05-12T11:56:56.175Z,22.95
2023-05-12T11:57:56.140Z,22.95
2023-05-12T11:58:56.167Z,22.94
2023-05-12T11:59:56.165Z,22.95
2023-05-12T12:00:56.136Z,22.95
2023-05-12T12:01:56.174Z,22.95
2023-05-12T12:02:56.249Z,22.95
2023-05-12T12:03:56.195Z,22.95
2023-05-12T12:04:56.114Z,22.94
2023-05-12T12:05:56.086Z,22.96
2023-05-12T12:06:56.091Z,22.96
2023-05-12T12:07:56.141Z,22.96
2023-05-12T12:08:56.073Z,22.96
2023-05-12T12:09:56.074Z,22.96
2023-05-12T12:10:56.089Z,22.95
2023-05-12T12:11:56.022Z,22.95
2023-05-12T12:12:56.066Z,22.95
2023-05-12T12:13:56.074Z,22.95
2023-05-12T12:14:56.049Z,22.95
2023-05-12T12:15:56.092Z,22.95
2023-05-12T12:16:56.011Z,22.95
2023-05-12T12:17:56.092Z,22.96
2023-05-12T12:18:56.102Z,22.96
2023-05-12T12:19:56.004Z,22.96
2023-05-12T12:20:55.987Z,22.95
2023-05-12T12:21:55.992Z,22.96
2023-05-12T12:22:55.945Z,22.97
2023-05-12T12:23:55.963Z,22.96
2023-05-12T12:24:56.259Z,22.96
2023-05-12T12:25:55.952Z,22.96
2023-05-12T12:26:55.959Z,22.96
2023-05-12T12:27:55.977Z,22.97
2023-05-12T12:28:55.958Z,22.97
2023-05-12T12:29:56.205Z,22.96
2023-05-12T12:30:55.945Z,22.97
2023-05-12T12:31:55.924Z,22.98
2023-05-12T12:32:56.019Z,22.98
2023-05-12T12:33:56.009Z,22.98
2023-05-12T12:34:56.028Z,22.98
2023-05-12T12:35:56.035Z,22.98
2023-05-12T12:36:56.098Z,22.98
2023-05-12T12:37:56.181Z,22.98
2023-05-12T12:38:56.164Z,22.99
2023-05-12T12:39:56.249Z,22.99
2023-05-12T12:40:56.271Z,23.00
2023-05-12T12:41:56.319Z,22.99
2023-05-12T12:42:56.377Z,23.00
2023-05-12T12:43:56.404Z,22.99
2023-05-12T12:44:56.426Z,23.00
2023-05-12T12:45:56.503Z,23.00
2023-05-12T12:46:56.608Z,22.99
2023-05-12T12:47:56.673Z,22.99
2023-05-12T12:48:56.638Z,23.00
2023-05-12T12:49:56.658Z,23.00
2023-05-12T12:50:56.759Z,22.99
2023-05-12T12:51:56.772Z,23.00
2023-05-12T12:52:56.818Z,23.00
2023-05-12T12:53:56.848Z,23.01
2023-05-12T12:54:56.890Z,23.00
2023-05-12T12:55:56.949Z,23.02